createdAt,value
2022-12-19T00:00:30.856Z,82.00
2022-12-19T00:02:58.856Z,86.22
2022-12-19T00:05:26.872Z,66.30
2022-12-19T00:07:54.775Z,71.57
2022-12-19T00:10:22.909Z,59.53
2022-12-19T00:12:50.815Z,67.65
2022-12-19T00:15:18.886Z,69.93
2022-12-19T00:17:48.202Z,66.50
2022-12-19T00:20:18.521Z,83.03
2022-12-19T00:22:46.811Z,66.05
2022-12-19T00:25:14.850Z,57.55
2022-12-19T00:27:44.117Z,71.80
2022-12-19T00:30:13.450Z,68.05
2022-12-19T00:32:42.283Z,60.97
2022-12-19T00:35:12.080Z,69.60
2022-12-19T00:37:43.426Z,68.10
2022-12-19T00:40:17.987Z,56.47
2022-12-19T00:42:51.736Z,65.15
2022-12-19T00:45:21.744Z,64.22
2022-12-19T00:47:49.761Z,57.97
2022-12-19T00:50:19.025Z,58.33
2022-12-19T00:52:46.965Z,60.72
2022-12-19T00:55:19.149Z,66.13
2022-12-19T00:57:48.019Z,58.03
2022-12-19T01:00:17.477Z,62.88
2022-12-19T01:02:46.142Z,61.85
2022-12-19T01:05:14.193Z,59.10
2022-12-19T01:07:43.711Z,66.53
2022-12-19T01:10:11.670Z,58.08
2022-12-19T01:12:47.601Z,67.70
2022-12-19T01:15:18.036Z,64.57
2022-12-19T01:17:46.120Z,59.95
2022-12-19T01:20:15.133Z,62.13
2022-12-19T01:22:44.489Z,60.70
2022-12-19T01:25:15.275Z,61.20
2022-12-19T01:27:43.278Z,67.57
2022-12-19T01:30:12.784Z,72.45
2022-12-19T01:32:41.701Z,63.15
2022-12-19T01:35:15.431Z,67.88
2022-12-19T01:37:51.082Z,55.10
2022-12-19T01:40:19.408Z,60.35
2022-12-19T01:42:49.102Z,64.43
2022-12-19T01:45:34.853Z,76.10
2022-12-19T01:48:16.474Z,71.20
2022-12-19T01:51:00.561Z,64.05
2022-12-19T01:53:48.483Z,62.70
2022-12-19T01:56:21.504Z,61.83
2022-12-19T01:58:51.267Z,64.10
2022-12-19T02:01:27.619Z,57.35
2022-12-19T02:03:57.435Z,60.47
2022-12-19T02:06:26.226Z,70.97
2022-12-19T02:08:57.435Z,69.20
2022-12-19T02:11:25.487Z,63.30
2022-12-19T02:13:54.131Z,62.75
2022-12-19T02:16:33.238Z,72.25
2022-12-19T02:19:14.565Z,63.13
2022-12-19T02:21:54.823Z,65.78
2022-12-19T02:25:02.773Z,63.35
2022-12-19T02:27:52.691Z,63.53
2022-12-19T02:30:43.225Z,63.03
2022-12-19T02:33:18.250Z,64.55
2022-12-19T02:35:52.764Z,71.05
2022-12-19T02:38:26.339Z,63.72
2022-12-19T02:40:59.805Z,76.75
2022-12-19T02:43:32.677Z,65.57
2022-12-19T02:46:06.192Z,69.20
2022-12-19T02:48:36.635Z,63.42
2022-12-19T02:51:06.402Z,58.17
2022-12-19T02:53:36.317Z,68.60
2022-12-19T02:56:35.026Z,61.90
2022-12-19T02:59:18.977Z,67.15
2022-12-19T03:01:53.190Z,62.05
2022-12-19T03:04:30.580Z,58.40
2022-12-19T03:07:05.092Z,64.97
2022-12-19T03:09:46.186Z,63.60
2022-12-19T03:12:21.805Z,62.13
2022-12-19T03:14:50.813Z,58.47
2022-12-19T03:17:20.849Z,57.72
2022-12-19T03:19:48.857Z,61.17
2022-12-19T03:22:16.986Z,59.25
2022-12-19T03:24:44.988Z,59.47
2022-12-19T03:27:18.550Z,61.78
2022-12-19T03:29:50.364Z,58.75
2022-12-19T03:32:21.369Z,67.45
2022-12-19T03:34:53.403Z,60.45
2022-12-19T03:37:25.025Z,67.10
2022-12-19T03:39:57.958Z,62.90
2022-12-19T03:42:46.664Z,63.30
2022-12-19T03:45:17.860Z,60.67
2022-12-19T03:47:50.089Z,72.38
2022-12-19T03:50:19.121Z,66.75
2022-12-19T03:52:53.693Z,66.78
2022-12-19T03:55:28.038Z,66.90
2022-12-19T03:58:00.196Z,70.05
2022-12-19T04:00:28.687Z,68.15
2022-12-19T04:03:00.484Z,64.82
2022-12-19T04:05:30.071Z,65.72
2022-12-19T04:08:01.961Z,65.25
2022-12-19T04:10:30.976Z,64.57
2022-12-19T04:13:02.999Z,63.65
2022-12-19T04:15:36.173Z,69.07
2022-12-19T04:18:08.144Z,63.65
2022-12-19T04:20:39.660Z,64.75
2022-12-19T04:23:12.645Z,65.68
2022-12-19T04:25:42.739Z,71.72
2022-12-19T04:28:16.219Z,76.15
2022-12-19T04:30:45.404Z,67.75
2022-12-19T04:33:14.702Z,70.07
2022-12-19T04:35:42.799Z,67.43
2022-12-19T04:38:10.720Z,70.70
2022-12-19T04:40:41.529Z,72.00
2022-12-19T04:43:10.093Z,61.63
2022-12-19T04:45:38.129Z,68.20
2022-12-19T04:48:08.126Z,65.20
2022-12-19T04:50:38.314Z,74.35
2022-12-19T04:53:07.454Z,67.47
2022-12-19T04:55:35.372Z,68.63
2022-12-19T04:58:04.850Z,69.22
2022-12-19T05:00:33.481Z,77.40
2022-12-19T05:03:01.754Z,72.75
2022-12-19T05:05:29.845Z,66.20
2022-12-19T05:07:59.089Z,74.03
2022-12-19T05:10:27.025Z,75.35
2022-12-19T05:12:55.356Z,69.70
2022-12-19T05:15:23.452Z,68.10
2022-12-19T05:17:51.408Z,64.80
2022-12-19T05:20:19.617Z,76.55
2022-12-19T05:22:47.885Z,71.13
2022-12-19T05:25:17.285Z,68.22
2022-12-19T05:27:45.292Z,63.75
2022-12-19T05:30:13.996Z,61.05
2022-12-19T05:32:41.913Z,73.28
2022-12-19T05:35:09.996Z,67.00
2022-12-19T05:37:37.914Z,79.45
2022-12-19T05:40:06.768Z,64.20
2022-12-19T05:42:36.147Z,80.60
2022-12-19T05:45:04.132Z,88.50
2022-12-19T05:47:32.140Z,92.88
2022-12-19T05:50:00.175Z,76.15
2022-12-19T05:52:28.230Z,81.82
2022-12-19T05:54:56.409Z,75.78
2022-12-19T05:57:24.621Z,109.60
2022-12-19T05:59:53.860Z,81.50
2022-12-19T06:02:21.948Z,69.20
2022-12-19T06:04:49.945Z,70.90
2022-12-19T06:07:21.028Z,90.03
2022-12-19T06:09:49.288Z,63.75
2022-12-19T06:12:17.330Z,68.28
2022-12-19T06:14:45.220Z,85.90
2022-12-19T06:17:14.494Z,80.25
2022-12-19T06:19:42.492Z,93.55
2022-12-19T06:22:10.600Z,74.75
2022-12-19T06:24:39.727Z,68.65
2022-12-19T06:27:07.707Z,74.65
2022-12-19T06:29:35.699Z,65.85
2022-12-19T06:32:03.686Z,70.75
2022-12-19T06:35:02.802Z,67.55
2022-12-19T06:37:21.186Z,76.00
2022-12-19T06:39:50.920Z,69.70
2022-12-19T06:42:23.758Z,70.07
2022-12-19T06:44:52.403Z,69.20
2022-12-19T06:47:21.165Z,62.05
2022-12-19T06:49:50.698Z,69.93
2022-12-19T06:52:19.117Z,71.63
2022-12-19T06:54:47.144Z,71.88
2022-12-19T06:57:15.030Z,73.38
2022-12-19T06:59:43.297Z,79.78
2022-12-19T07:02:22.629Z,80.88
2022-12-19T07:04:57.917Z,81.43
2022-12-19T07:07:25.935Z,99.80
2022-12-19T07:09:53.914Z,75.35
2022-12-19T07:12:21.863Z,78.63
2022-12-19T07:14:53.307Z,82.18
2022-12-19T07:17:23.412Z,64.72
2022-12-19T07:19:55.138Z,93.60
2022-12-19T07:22:24.015Z,77.25
2022-12-19T07:24:52.040Z,77.03
2022-12-19T07:27:20.020Z,72.38
2022-12-19T07:29:47.905Z,74.55
2022-12-19T07:32:15.903Z,74.43
2022-12-19T07:34:43.829Z,74.22
2022-12-19T07:37:13.281Z,83.90
2022-12-19T07:39:41.222Z,97.82
2022-12-19T07:42:09.150Z,94.70
2022-12-19T07:44:40.017Z,83.82
2022-12-19T07:47:07.982Z,115.00
2022-12-19T07:49:36.090Z,106.57
2022-12-19T07:52:04.262Z,93.28
2022-12-19T07:54:34.995Z,89.47
2022-12-19T07:57:03.316Z,84.82
2022-12-19T07:59:38.665Z,80.68
2022-12-19T08:02:08.017Z,81.53
2022-12-19T08:04:36.184Z,84.88
2022-12-19T08:07:04.381Z,92.75
2022-12-19T08:09:33.690Z,92.50
2022-12-19T08:12:01.644Z,80.10
2022-12-19T08:14:29.562Z,81.68
2022-12-19T08:17:19.694Z,89.00
2022-12-19T08:19:45.382Z,79.80
2022-12-19T08:22:13.496Z,89.20
2022-12-19T08:24:42.818Z,79.00
2022-12-19T08:27:10.756Z,134.00
2022-12-19T08:29:38.755Z,95.25
2022-12-19T08:32:06.725Z,84.47
2022-12-19T08:34:34.696Z,102.20
2022-12-19T08:37:02.624Z,74.72
2022-12-19T08:39:30.549Z,95.70
2022-12-19T08:42:00.750Z,110.03
2022-12-19T08:44:28.758Z,97.00
2022-12-19T08:46:56.691Z,91.15
2022-12-19T08:49:24.664Z,106.55
2022-12-19T08:51:52.564Z,104.80
2022-12-19T08:54:20.501Z,95.97
2022-12-19T08:56:48.555Z,97.50
2022-12-19T08:59:25.562Z,91.45
2022-12-19T09:01:59.832Z,80.22
2022-12-19T09:05:57.161Z,91.35
2022-12-19T09:07:16.548Z,88.15
2022-12-19T09:09:44.704Z,96.30
2022-12-19T09:12:14.071Z,82.63
2022-12-19T09:14:44.089Z,92.10
2022-12-19T09:17:12.157Z,94.88
2022-12-19T09:19:40.134Z,141.93
2022-12-19T09:22:11.504Z,85.40
2022-12-19T09:24:39.523Z,86.18
2022-12-19T09:27:07.480Z,83.55
2022-12-19T09:29:35.938Z,84.85
2022-12-19T09:32:05.490Z,77.60
2022-12-19T09:34:37.553Z,77.85
2022-12-19T09:37:07.627Z,89.40
2022-12-19T09:39:36.359Z,94.47
2022-12-19T09:42:41.511Z,96.88
2022-12-19T09:45:45.849Z,90.15
2022-12-19T09:48:24.751Z,85.70
2022-12-19T09:51:09.365Z,82.47
2022-12-19T09:53:54.134Z,80.55
2022-12-19T09:56:27.126Z,80.85
2022-12-19T09:59:01.471Z,77.57
2022-12-19T10:01:36.128Z,78.88
2022-12-19T10:04:12.522Z,77.13
2022-12-19T10:07:16.795Z,85.88
2022-12-19T10:12:33.056Z,78.30
2022-12-19T10:12:53.809Z,75.78
2022-12-19T10:15:33.656Z,78.32
2022-12-19T10:18:26.413Z,87.57
2022-12-19T10:21:04.877Z,81.93
2022-12-19T10:24:00.406Z,88.75
2022-12-19T10:26:35.132Z,73.35
2022-12-19T10:29:18.124Z,78.90
2022-12-19T10:31:53.997Z,76.13
2022-12-19T10:34:24.531Z,95.03
2022-12-19T10:37:25.226Z,74.07
2022-12-19T10:39:56.180Z,81.22
2022-12-19T10:42:33.392Z,100.80
2022-12-19T10:45:09.821Z,110.05
2022-12-19T10:47:38.085Z,86.60
2022-12-19T10:50:09.676Z,81.93
2022-12-19T10:52:52.134Z,78.25
2022-12-19T10:55:30.644Z,76.80
2022-12-19T10:58:00.411Z,81.40
2022-12-19T11:00:29.151Z,82.40
2022-12-19T11:03:16.848Z,78.82
2022-12-19T11:05:57.800Z,75.05
2022-12-19T11:08:29.402Z,67.90
2022-12-19T11:12:35.544Z,68.65
2022-12-19T11:18:19.025Z,75.93
2022-12-19T11:24:45.038Z,69.97
2022-12-19T11:29:30.745Z,73.35
2022-12-19T11:29:32.231Z,72.38
2022-12-19T11:29:44.432Z,75.10
2022-12-19T11:30:45.893Z,75.53
2022-12-19T11:34:04.906Z,84.70
2022-12-19T11:36:38.747Z,81.80
2022-12-19T11:39:12.905Z,78.80
2022-12-19T11:41:47.396Z,76.20
2022-12-19T11:44:27.293Z,74.22
2022-12-19T11:47:00.422Z,71.78
2022-12-19T11:49:33.125Z,80.20
2022-12-19T11:52:09.137Z,67.25
2022-12-19T11:54:51.925Z,81.30
2022-12-19T11:57:21.854Z,66.18
2022-12-19T11:59:49.884Z,74.53
2022-12-19T12:03:02.759Z,71.13
2022-12-19T12:05:45.948Z,76.05
2022-12-19T12:12:00.325Z,70.18
2022-12-19T12:19:15.445Z,73.25
2022-12-19T12:26:33.126Z,74.80
2022-12-19T12:31:00.356Z,86.15
2022-12-19T12:31:18.109Z,77.28
2022-12-19T12:31:19.469Z,85.88
2022-12-19T12:31:41.879Z,90.70
2022-12-19T12:31:56.860Z,87.45
2022-12-19T12:35:22.364Z,90.07
2022-12-19T12:38:43.084Z,89.38
2022-12-19T12:41:21.425Z,92.97
2022-12-19T12:44:05.863Z,78.85
2022-12-19T12:46:38.563Z,79.20
2022-12-19T12:49:23.492Z,83.97
2022-12-19T12:51:52.194Z,87.13
2022-12-19T12:54:21.763Z,80.22
2022-12-19T12:56:49.974Z,86.68
2022-12-19T12:59:23.932Z,93.00
2022-12-19T13:01:54.945Z,101.78
2022-12-19T13:04:30.020Z,113.85
2022-12-19T13:07:27.652Z,118.35
2022-12-19T13:10:17.749Z,123.97
2022-12-19T13:13:00.965Z,104.78
2022-12-19T13:15:40.814Z,104.95
2022-12-19T13:18:37.791Z,81.30
2022-12-19T13:21:10.652Z,86.15
2022-12-19T13:23:47.268Z,116.20
2022-12-19T13:26:46.656Z,97.93
2022-12-19T13:29:29.566Z,83.50
2022-12-19T13:32:12.952Z,87.45
2022-12-19T13:34:42.314Z,99.00
2022-12-19T13:39:50.344Z,99.57
2022-12-19T13:40:33.736Z,81.63
2022-12-19T13:43:30.699Z,85.78
2022-12-19T13:46:01.438Z,74.75
2022-12-19T13:48:32.787Z,83.40
2022-12-19T13:51:04.697Z,88.25
2022-12-19T13:53:34.110Z,95.07
2022-12-19T13:56:04.380Z,81.38
2022-12-19T13:58:37.650Z,89.25
2022-12-19T14:01:20.162Z,78.80
2022-12-19T14:03:51.185Z,86.60
2022-12-19T14:06:22.946Z,80.97
2022-12-19T14:09:16.257Z,78.35
2022-12-19T14:13:46.117Z,79.95
2022-12-19T14:14:58.067Z,118.68
2022-12-19T14:17:38.744Z,92.00
2022-12-19T14:22:01.819Z,104.35
2022-12-19T14:23:07.519Z,223.63
2022-12-19T14:28:15.068Z,197.40
2022-12-19T14:28:50.702Z,91.43
2022-12-19T14:31:23.412Z,81.10
2022-12-19T14:34:11.467Z,87.25
2022-12-19T14:36:48.362Z,88.15
2022-12-19T14:39:27.456Z,85.28
2022-12-19T14:42:31.620Z,84.20
2022-12-19T14:52:08.521Z,81.03
2022-12-19T14:53:17.516Z,93.53
2022-12-19T14:54:08.442Z,88.05
2022-12-19T14:57:50.592Z,85.53
2022-12-19T15:00:50.574Z,81.10
2022-12-19T15:03:21.215Z,83.75
2022-12-19T15:05:49.642Z,90.75
2022-12-19T15:09:02.591Z,101.45
2022-12-19T15:11:53.709Z,101.82
2022-12-19T15:14:57.630Z,90.97
2022-12-19T15:17:21.707Z,80.38
2022-12-19T15:19:50.561Z,93.45
2022-12-19T15:22:19.899Z,88.50
2022-12-19T15:24:47.842Z,86.05
2022-12-19T15:27:18.308Z,91.55
2022-12-19T15:29:47.611Z,89.10
2022-12-19T15:32:18.049Z,94.40
2022-12-19T15:34:51.143Z,305.60
2022-12-19T15:37:19.828Z,386.90
2022-12-19T15:39:47.796Z,153.23
2022-12-19T15:42:21.423Z,141.18
2022-12-19T15:44:51.346Z,107.70
2022-12-19T15:47:26.717Z,100.88
2022-12-19T15:49:54.626Z,87.10
2022-12-19T15:52:25.413Z,110.22
2022-12-19T15:54:53.532Z,120.15
2022-12-19T15:57:30.149Z,117.60
2022-12-19T16:00:03.108Z,106.70
2022-12-19T16:05:23.389Z,94.70
2022-12-19T16:07:51.581Z,83.78
2022-12-19T16:10:19.851Z,81.25
2022-12-19T16:12:51.652Z,85.68
2022-12-19T16:15:26.364Z,78.30
2022-12-19T16:17:55.233Z,75.13
2022-12-19T16:20:25.446Z,75.18
2022-12-19T16:22:53.550Z,76.00
2022-12-19T16:25:21.893Z,72.90
2022-12-19T16:27:55.026Z,79.95
2022-12-19T16:30:29.314Z,83.45
2022-12-19T16:32:57.653Z,74.57
2022-12-19T16:35:55.071Z,75.63
2022-12-19T16:38:15.530Z,76.43
2022-12-19T16:40:43.858Z,79.15
2022-12-19T16:43:17.238Z,78.20
2022-12-19T16:45:47.277Z,83.80
2022-12-19T16:48:20.681Z,139.70
2022-12-19T16:50:49.095Z,90.35
2022-12-19T16:53:17.613Z,101.82
2022-12-19T16:55:46.904Z,90.60
2022-12-19T16:58:17.241Z,83.22
2022-12-19T17:00:46.827Z,84.78
2022-12-19T17:03:28.272Z,80.05
2022-12-19T17:05:56.488Z,75.10
2022-12-19T17:08:26.243Z,77.30
2022-12-19T17:10:55.333Z,85.32
2022-12-19T17:13:24.466Z,88.07
2022-12-19T17:15:56.967Z,74.28
2022-12-19T17:18:29.822Z,80.93
2022-12-19T17:20:57.829Z,77.45
2022-12-19T17:23:28.987Z,69.07
2022-12-19T17:25:58.113Z,70.47
2022-12-19T17:28:26.221Z,70.75
2022-12-19T17:30:57.926Z,64.95
2022-12-19T17:33:32.987Z,72.75
2022-12-19T17:36:01.833Z,76.03
2022-12-19T17:38:29.800Z,68.28
2022-12-19T17:40:58.159Z,72.93
2022-12-19T17:43:26.108Z,68.15
2022-12-19T17:45:55.489Z,81.05
2022-12-19T17:48:28.416Z,66.72
2022-12-19T17:50:57.170Z,79.35
2022-12-19T17:53:25.329Z,79.13
2022-12-19T17:55:53.552Z,67.53
2022-12-19T17:58:21.614Z,69.10
2022-12-19T18:00:51.092Z,77.38
2022-12-19T18:03:23.461Z,81.07
2022-12-19T18:05:52.992Z,73.45
2022-12-19T18:08:25.491Z,70.47
2022-12-19T18:10:54.316Z,75.72
2022-12-19T18:13:22.193Z,69.88
2022-12-19T18:15:50.949Z,68.18
2022-12-19T18:18:26.510Z,67.45
2022-12-19T18:20:54.803Z,66.30
2022-12-19T18:23:24.755Z,67.35
2022-12-19T18:25:59.440Z,87.05
2022-12-19T18:28:29.339Z,65.07
2022-12-19T18:31:01.191Z,63.58
2022-12-19T18:33:37.792Z,74.38
2022-12-19T18:36:07.546Z,69.43
2022-12-19T18:38:35.841Z,73.25
2022-12-19T18:41:04.002Z,63.47
2022-12-19T18:43:32.675Z,73.30
2022-12-19T18:46:00.761Z,75.95
2022-12-19T18:48:32.748Z,71.40
2022-12-19T18:51:02.095Z,77.05
2022-12-19T18:53:35.400Z,85.45
2022-12-19T18:56:05.304Z,83.80
2022-12-19T18:58:33.712Z,99.10
2022-12-19T19:01:03.429Z,78.05
2022-12-19T19:03:34.709Z,77.38
2022-12-19T19:06:03.781Z,90.47
2022-12-19T19:08:33.659Z,97.88
2022-12-19T19:11:33.792Z,100.47
2022-12-19T19:14:01.922Z,109.03
2022-12-19T19:16:30.383Z,101.90
2022-12-19T19:19:00.877Z,96.70
2022-12-19T19:21:33.228Z,91.55
2022-12-19T19:24:06.300Z,143.02
2022-12-19T19:26:34.262Z,138.48
2022-12-19T19:29:02.297Z,116.35
2022-12-19T19:31:32.809Z,119.65
2022-12-19T19:34:06.354Z,113.15
2022-12-19T19:36:38.131Z,98.60
2022-12-19T19:39:06.402Z,87.63
2022-12-19T19:41:34.590Z,119.95
2022-12-19T19:44:02.564Z,135.90
2022-12-19T19:46:30.680Z,117.38
2022-12-19T19:48:58.717Z,118.18
2022-12-19T19:51:29.235Z,99.18
2022-12-19T19:53:57.506Z,96.22
2022-12-19T19:56:25.416Z,105.53
2022-12-19T19:58:55.185Z,83.13
2022-12-19T20:01:23.367Z,83.90
2022-12-19T20:03:51.370Z,96.80
2022-12-19T20:06:19.731Z,94.55
2022-12-19T20:08:49.308Z,92.70
2022-12-19T20:11:18.158Z,91.97
2022-12-19T20:13:46.080Z,102.57
2022-12-19T20:16:16.697Z,91.93
2022-12-19T20:18:49.307Z,96.90
2022-12-19T20:21:18.261Z,94.50
2022-12-19T20:23:46.400Z,102.47
2022-12-19T20:26:16.544Z,116.13
2022-12-19T20:28:49.099Z,106.10
2022-12-19T20:31:18.656Z,87.63
2022-12-19T20:33:48.250Z,87.40
2022-12-19T20:36:17.415Z,93.82
2022-12-19T20:38:45.841Z,88.00
2022-12-19T20:41:15.599Z,92.03
2022-12-19T20:43:43.830Z,90.85
2022-12-19T20:46:14.194Z,93.43
2022-12-19T20:48:42.508Z,83.97
2022-12-19T20:51:10.927Z,89.28
2022-12-19T20:53:41.486Z,94.35
2022-12-19T20:56:11.783Z,90.35
2022-12-19T20:58:41.120Z,93.32
2022-12-19T21:01:11.221Z,100.00
2022-12-19T21:03:40.366Z,107.93
2022-12-19T21:06:10.362Z,110.07
2022-12-19T21:08:39.676Z,97.97
2022-12-19T21:11:09.379Z,89.75
2022-12-19T21:13:38.781Z,89.97
2022-12-19T21:16:09.926Z,108.35
2022-12-19T21:18:39.362Z,104.72
2022-12-19T21:21:09.119Z,100.82
2022-12-19T21:23:37.202Z,120.30
2022-12-19T21:26:05.986Z,150.60
2022-12-19T21:28:34.993Z,115.22
2022-12-19T21:31:06.858Z,95.40
2022-12-19T21:33:36.286Z,96.90
2022-12-19T21:36:09.065Z,97.75
2022-12-19T21:38:37.900Z,93.00
2022-12-19T21:41:07.650Z,90.22
2022-12-19T21:43:36.825Z,92.05
2022-12-19T21:46:06.766Z,93.35
2022-12-19T21:48:38.386Z,99.30
2022-12-19T21:51:06.831Z,91.75
2022-12-19T21:53:35.547Z,103.95
2022-12-19T21:56:07.805Z,104.03
2022-12-19T21:58:35.880Z,101.80
2022-12-19T22:01:08.517Z,113.95
2022-12-19T22:03:38.840Z,106.18
2022-12-19T22:06:09.590Z,107.65
2022-12-19T22:08:37.744Z,101.82
2022-12-19T22:11:10.659Z,110.28
2022-12-19T22:13:38.575Z,94.07
2022-12-19T22:16:07.370Z,114.03
2022-12-19T22:18:37.078Z,101.10
2022-12-19T22:21:05.817Z,118.13
2022-12-19T22:23:34.098Z,124.88
2022-12-19T22:26:04.615Z,133.05
2022-12-19T22:28:33.636Z,125.75
2022-12-19T22:31:01.827Z,126.90
2022-12-19T22:33:30.018Z,111.10
2022-12-19T22:36:05.189Z,117.80
2022-12-19T22:38:33.146Z,121.05
2022-12-19T22:41:04.606Z,95.25
2022-12-19T22:43:32.787Z,125.68
2022-12-19T22:46:00.734Z,106.30
2022-12-19T22:48:28.825Z,103.10
2022-12-19T22:50:59.522Z,99.72
2022-12-19T22:53:27.513Z,108.95
2022-12-19T22:55:55.463Z,101.20
2022-12-19T22:58:23.379Z,106.72
2022-12-19T23:00:51.391Z,116.38
2022-12-19T23:03:19.565Z,98.10
2022-12-19T23:05:51.904Z,102.25
2022-12-19T23:08:21.658Z,110.57
2022-12-19T23:10:51.289Z,100.80
2022-12-19T23:13:19.717Z,107.45
2022-12-19T23:15:47.804Z,102.57
2022-12-19T23:18:16.392Z,105.53
2022-12-19T23:20:44.621Z,122.28
2022-12-19T23:23:12.593Z,120.47
2022-12-19T23:25:42.928Z,133.50
2022-12-19T23:28:11.145Z,136.30
2022-12-19T23:30:39.213Z,155.82
2022-12-19T23:33:07.241Z,155.93
2022-12-19T23:35:35.225Z,118.10
2022-12-19T23:38:03.532Z,124.40
2022-12-19T23:40:31.694Z,103.90
2022-12-19T23:43:01.422Z,108.93
2022-12-19T23:45:29.486Z,105.65
2022-12-19T23:47:57.537Z,96.18
2022-12-19T23:50:25.501Z,100.40
2022-12-19T23:52:53.412Z,98.80
2022-12-19T23:55:21.458Z,92.97
2022-12-19T23:57:49.451Z,104.25
